Time;durP1;ratioP1;P1;durP2;ratioP2;P2;SDS_P1;SDS_P2;PMS_P1;PMS_P2;Temp;Humidity;BMP_temperature;BMP_pressure;BME280_temperature;BME280_humidity;BME280_pressure;Samples;Min_cycle;Max_cycle;Signal;HPM_P1;HPM_P2
2021/06/22 00:01:18;;;;;;;11.30;3.50;;;;;;;;;;5049644;27;40229;-80
2021/06/22 00:03:44;;;;;;;7.60;3.08;;;;;;;;;;5048568;27;38851;-79
2021/06/22 00:06:11;;;;;;;7.07;3.70;;;;;;;;;;5047433;27;36944;-81
2021/06/22 00:08:37;;;;;;;7.35;3.20;;;;;;;;;;5049898;27;38726;-80
2021/06/22 00:11:04;;;;;;;6.78;3.17;;;;;;;;;;5046835;27;39027;-80
2021/06/22 00:13:31;;;;;;;6.85;3.28;;;;;;;;;;5048011;27;38186;-81
2021/06/22 00:15:57;;;;;;;9.52;4.13;;;;;;;;;;5068772;27;37686;-82
2021/06/22 00:18:23;;;;;;;8.10;3.53;;;;;;;;;;5047983;27;39074;-81
2021/06/22 00:20:50;;;;;;;7.30;4.05;;;;;;;;;;5047666;27;38149;-80
2021/06/22 00:23:16;;;;;;;7.47;3.60;;;;;;;;;;5047261;27;38955;-80
2021/06/22 00:25:42;;;;;;;6.78;3.92;;;;;;;;;;5051591;27;36615;-80
2021/06/22 00:28:09;;;;;;;8.25;4.00;;;;;;;;;;5048293;27;38699;-81
2021/06/22 00:30:35;;;;;;;6.45;3.83;;;;;;;;;;5067556;27;40917;-80
2021/06/22 00:33:02;;;;;;;8.75;3.33;;;;;;;;;;5051961;27;38221;-81
2021/06/22 00:35:28;;;;;;;7.32;3.22;;;;;;;;;;5049594;27;37111;-81
2021/06/22 00:37:55;;;;;;;7.43;3.38;;;;;;;;;;5063761;28;39262;-82
2021/06/22 00:40:21;;;;;;;10.55;4.20;;;;;;;;;;5056568;27;40879;-81
2021/06/22 00:42:48;;;;;;;10.60;3.70;;;;;;;;;;5051322;28;38917;-80
2021/06/22 00:45:16;;;;;;;7.53;3.83;;;;;;;;;;5048761;27;37086;-82
2021/06/22 00:47:42;;;;;;;5.90;3.08;;;;;;;;;;5047541;28;40390;-80
2021/06/22 00:50:09;;;;;;;7.28;4.00;;;;;;;;;;5050118;27;39378;-82
2021/06/22 00:52:37;;;;;;;10.07;3.72;;;;;;;;;;5049782;28;38890;-80
2021/06/22 00:55:11;;;;;;;6.88;4.13;;;;;;;;;;5041629;27;37270;-79
2021/06/22 00:57:38;;;;;;;11.48;4.60;;;;;;;;;;5027141;27;47755;-80
2021/06/22 01:00:06;;;;;;;8.25;4.82;;;;;;;;;;5033649;27;40263;-80
2021/06/22 01:02:32;;;;;;;8.52;3.70;;;;;;;;;;5044693;28;48621;-81
2021/06/22 01:04:59;;;;;;;7.75;3.70;;;;;;;;;;5047971;28;36909;-80
2021/06/22 01:07:25;;;;;;;5.93;3.47;;;;;;;;;;5059830;27;35629;-82
2021/06/22 01:09:52;;;;;;;7.18;4.20;;;;;;;;;;5049513;27;39827;-82
2021/06/22 01:12:18;;;;;;;9.77;4.03;;;;;;;;;;5050238;27;37181;-83
2021/06/22 01:14:46;;;;;;;7.93;4.32;;;;;;;;;;5045441;27;37482;-82
2021/06/22 01:17:12;;;;;;;11.93;4.35;;;;;;;;;;5045275;27;39862;-81
2021/06/22 01:19:39;;;;;;;9.57;3.95;;;;;;;;;;5044323;28;39472;-79
2021/06/22 01:22:06;;;;;;;8.20;3.35;;;;;;;;;;5042672;28;39242;-81
2021/06/22 01:24:33;;;;;;;8.50;3.95;;;;;;;;;;5057952;27;37634;-80
2021/06/22 01:27:00;;;;;;;6.55;3.67;;;;;;;;;;5044333;27;40116;-81
2021/06/22 01:29:27;;;;;;;7.15;4.10;;;;;;;;;;5038655;27;38642;-81
2021/06/22 01:31:55;;;;;;;7.72;3.95;;;;;;;;;;5048310;27;38213;-81
2021/06/22 01:34:25;;;;;;;7.10;3.75;;;;;;;;;;5046972;27;37770;-79
2021/06/22 01:36:51;;;;;;;8.50;4.50;;;;;;;;;;5063875;28;39914;-80
2021/06/22 01:39:17;;;;;;;6.80;3.90;;;;;;;;;;5049914;28;39100;-79
2021/06/22 01:41:44;;;;;;;8.40;4.53;;;;;;;;;;5045680;28;39175;-81
2021/06/22 01:44:10;;;;;;;6.65;3.95;;;;;;;;;;5045604;27;34582;-79
2021/06/22 01:46:37;;;;;;;5.20;3.53;;;;;;;;;;5050424;27;38376;-80
2021/06/22 01:49:04;;;;;;;9.00;4.80;;;;;;;;;;5048140;27;39051;-78
2021/06/22 01:51:30;;;;;;;10.20;4.13;;;;;;;;;;5045048;28;39422;-80
2021/06/22 01:53:58;;;;;;;6.90;4.00;;;;;;;;;;5047438;28;36715;-81
2021/06/22 01:56:26;;;;;;;8.00;4.07;;;;;;;;;;5049199;28;39513;-81
2021/06/22 01:58:52;;;;;;;7.57;3.33;;;;;;;;;;5046075;28;38866;-81
2021/06/22 02:01:19;;;;;;;7.68;4.03;;;;;;;;;;5061103;27;39142;-82
2021/06/22 02:03:46;;;;;;;7.70;3.80;;;;;;;;;;5048380;28;37218;-82
2021/06/22 02:06:15;;;;;;;7.88;3.72;;;;;;;;;;5049957;28;39920;-83
2021/06/22 02:08:41;;;;;;;5.78;3.47;;;;;;;;;;5046009;28;40137;-83
2021/06/22 02:11:08;;;;;;;8.57;4.60;;;;;;;;;;5061556;27;39209;-82
2021/06/22 02:13:35;;;;;;;8.95;4.18;;;;;;;;;;5045821;27;38323;-80
2021/06/22 02:16:01;;;;;;;8.10;4.25;;;;;;;;;;5043837;27;39151;-82
2021/06/22 02:18:27;;;;;;;5.38;3.95;;;;;;;;;;5038447;28;46727;-83
2021/06/22 02:20:54;;;;;;;6.13;3.97;;;;;;;;;;5062832;28;39863;-80
2021/06/22 02:23:20;;;;;;;5.30;3.95;;;;;;;;;;5052397;28;37090;-83
2021/06/22 02:25:47;;;;;;;11.00;4.57;;;;;;;;;;5047310;28;39518;-82
2021/06/22 02:28:18;;;;;;;9.18;4.40;;;;;;;;;;5043113;28;39304;-81
2021/06/22 02:30:45;;;;;;;5.32;3.92;;;;;;;;;;5045112;27;37609;-81
2021/06/22 02:33:12;;;;;;;8.75;3.78;;;;;;;;;;5043220;27;37664;-81
2021/06/22 02:35:39;;;;;;;9.88;4.53;;;;;;;;;;5046714;27;38260;-81
2021/06/22 02:38:05;;;;;;;8.77;4.20;;;;;;;;;;5045822;27;39485;-84
2021/06/22 02:40:32;;;;;;;9.07;3.90;;;;;;;;;;5043346;27;38363;-81
2021/06/22 02:42:58;;;;;;;10.75;3.92;;;;;;;;;;5042978;28;36769;-81
2021/06/22 02:45:25;;;;;;;7.13;3.42;;;;;;;;;;5047707;28;40731;-82
2021/06/22 02:47:52;;;;;;;11.80;4.35;;;;;;;;;;5049667;27;37905;-81
2021/06/22 02:50:19;;;;;;;6.05;3.90;;;;;;;;;;5057807;28;38868;-81
2021/06/22 02:52:46;;;;;;;7.38;4.03;;;;;;;;;;5071476;27;37520;-81
2021/06/22 02:55:18;;;;;;;7.40;3.40;;;;;;;;;;5047215;28;37621;-80
2021/06/22 02:57:46;;;;;;;6.10;3.97;;;;;;;;;;5047831;28;39372;-81
2021/06/22 03:00:12;;;;;;;4.93;3.35;;;;;;;;;;5042659;27;40223;-81
2021/06/22 03:02:39;;;;;;;5.63;3.25;;;;;;;;;;5047745;28;38392;-80
2021/06/22 03:05:06;;;;;;;7.43;3.22;;;;;;;;;;5042629;27;39565;-81
2021/06/22 03:07:32;;;;;;;8.15;3.55;;;;;;;;;;5047391;28;39614;-79
2021/06/22 03:09:58;;;;;;;6.80;3.53;;;;;;;;;;5046333;27;39496;-80
2021/06/22 03:12:25;;;;;;;4.88;3.33;;;;;;;;;;5049698;27;36641;-80
2021/06/22 03:14:51;;;;;;;8.07;3.88;;;;;;;;;;5050475;27;40005;-80
2021/06/22 03:17:18;;;;;;;7.20;4.43;;;;;;;;;;5045866;27;39661;-81
2021/06/22 03:19:44;;;;;;;8.20;4.47;;;;;;;;;;5047310;27;38064;-79
2021/06/22 03:22:10;;;;;;;15.32;5.57;;;;;;;;;;5060263;27;37490;-80
2021/06/22 03:24:37;;;;;;;9.00;5.63;;;;;;;;;;5047092;27;38917;-81
2021/06/22 03:27:03;;;;;;;8.65;5.90;;;;;;;;;;5052734;27;38599;-80
2021/06/22 03:29:30;;;;;;;14.10;6.55;;;;;;;;;;5048245;28;39211;-82
2021/06/22 03:31:56;;;;;;;15.45;5.97;;;;;;;;;;5045820;27;37942;-80
2021/06/22 03:34:22;;;;;;;9.40;5.80;;;;;;;;;;5048877;28;40212;-82
2021/06/22 03:36:49;;;;;;;13.07;6.13;;;;;;;;;;5044772;27;39805;-81
2021/06/22 03:39:15;;;;;;;14.70;6.70;;;;;;;;;;5044197;28;38781;-80
2021/06/22 03:41:42;;;;;;;11.52;6.55;;;;;;;;;;5045442;28;38198;-80
2021/06/22 03:44:08;;;;;;;12.60;6.70;;;;;;;;;;5048672;27;39621;-79
2021/06/22 03:46:35;;;;;;;10.32;6.95;;;;;;;;;;5046333;27;40447;-80
2021/06/22 03:49:02;;;;;;;10.60;6.75;;;;;;;;;;5043108;27;38814;-77
2021/06/22 03:51:28;;;;;;;8.85;6.63;;;;;;;;;;5031558;28;47117;-80
2021/06/22 03:53:55;;;;;;;15.93;6.40;;;;;;;;;;5042696;27;38867;-79
2021/06/22 03:56:21;;;;;;;11.70;5.88;;;;;;;;;;5035468;28;37598;-81
2021/06/22 03:58:47;;;;;;;11.43;6.05;;;;;;;;;;5052589;28;39325;-83
2021/06/22 04:01:14;;;;;;;15.50;6.32;;;;;;;;;;5026563;28;38458;-79
2021/06/22 04:03:40;;;;;;;11.77;6.40;;;;;;;;;;5055822;28;39574;-82
2021/06/22 04:06:07;;;;;;;14.05;6.43;;;;;;;;;;5028371;28;39119;-82
2021/06/22 04:08:35;;;;;;;9.73;6.47;;;;;;;;;;5023335;28;39168;-80
2021/06/22 04:11:02;;;;;;;13.82;5.93;;;;;;;;;;5053057;28;33173;-80
2021/06/22 04:13:28;;;;;;;9.60;6.10;;;;;;;;;;5065118;28;40405;-81
2021/06/22 04:15:54;;;;;;;11.80;6.38;;;;;;;;;;5047200;27;39767;-80
2021/06/22 04:18:21;;;;;;;11.05;7.03;;;;;;;;;;5050172;28;38921;-82
2021/06/22 04:20:48;;;;;;;14.57;6.97;;;;;;;;;;5066835;27;37402;-78
2021/06/22 04:23:14;;;;;;;10.88;6.15;;;;;;;;;;5047307;27;38836;-80
2021/06/22 04:25:41;;;;;;;13.50;7.25;;;;;;;;;;5046683;27;39464;-78
2021/06/22 04:28:07;;;;;;;14.20;6.90;;;;;;;;;;5046717;27;38616;-78
2021/06/22 04:30:35;;;;;;;9.55;6.78;;;;;;;;;;5044140;27;36755;-78
2021/06/22 04:33:02;;;;;;;11.90;6.57;;;;;;;;;;5060584;27;38914;-77
2021/06/22 04:35:30;;;;;;;17.55;8.63;;;;;;;;;;5044645;27;46348;-78
2021/06/22 04:37:57;;;;;;;13.95;7.28;;;;;;;;;;5046370;27;37325;-78
2021/06/22 04:40:24;;;;;;;12.80;7.38;;;;;;;;;;5043509;27;36389;-78
2021/06/22 04:42:50;;;;;;;12.48;7.88;;;;;;;;;;5043214;28;39202;-78
2021/06/22 04:45:16;;;;;;;19.40;8.60;;;;;;;;;;5045645;27;39015;-77
2021/06/22 04:47:43;;;;;;;19.98;7.97;;;;;;;;;;5044773;27;40118;-78
2021/06/22 04:50:09;;;;;;;15.70;8.05;;;;;;;;;;5046960;27;38405;-77
2021/06/22 04:52:36;;;;;;;14.18;7.70;;;;;;;;;;5066837;27;40590;-80
2021/06/22 04:55:03;;;;;;;14.88;7.65;;;;;;;;;;5038732;27;38842;-79
2021/06/22 04:57:29;;;;;;;19.15;8.95;;;;;;;;;;5041989;27;41607;-78
2021/06/22 04:59:57;;;;;;;14.43;8.30;;;;;;;;;;5046339;28;38181;-79
2021/06/22 05:02:23;;;;;;;12.77;7.88;;;;;;;;;;5075794;27;39566;-79
2021/06/22 05:04:51;;;;;;;16.63;8.23;;;;;;;;;;5050717;27;38588;-80
2021/06/22 05:07:17;;;;;;;10.82;7.18;;;;;;;;;;5048337;28;38915;-79
2021/06/22 05:09:44;;;;;;;16.23;8.63;;;;;;;;;;5045705;28;37958;-78
2021/06/22 05:12:10;;;;;;;15.68;8.35;;;;;;;;;;5049952;27;39259;-78
2021/06/22 05:14:37;;;;;;;12.63;7.65;;;;;;;;;;5052165;28;39837;-78
2021/06/22 05:17:03;;;;;;;15.82;9.63;;;;;;;;;;5073782;27;40072;-81
2021/06/22 05:19:30;;;;;;;13.52;8.88;;;;;;;;;;5050794;28;37644;-81
2021/06/22 05:21:56;;;;;;;14.95;9.23;;;;;;;;;;5056389;28;38443;-79
2021/06/22 05:24:22;;;;;;;16.65;10.60;;;;;;;;;;5057858;27;38893;-79
2021/06/22 05:26:49;;;;;;;18.85;11.40;;;;;;;;;;5053225;28;40242;-78
2021/06/22 05:29:15;;;;;;;15.32;10.15;;;;;;;;;;5051693;27;39265;-80
2021/06/22 05:31:41;;;;;;;19.90;12.00;;;;;;;;;;5048857;28;40420;-81
2021/06/22 05:34:08;;;;;;;17.02;11.18;;;;;;;;;;5046282;28;39131;-80
2021/06/22 05:36:34;;;;;;;16.63;12.18;;;;;;;;;;5047398;28;38487;-82
2021/06/22 05:39:01;;;;;;;20.73;12.77;;;;;;;;;;5057814;28;38402;-80
2021/06/22 05:41:27;;;;;;;26.25;14.48;;;;;;;;;;5031590;28;39661;-80
2021/06/22 05:43:54;;;;;;;24.65;14.40;;;;;;;;;;5044613;28;39815;-80
2021/06/22 05:46:20;;;;;;;19.60;13.68;;;;;;;;;;5036087;28;38496;-78
2021/06/22 05:48:47;;;;;;;21.30;14.27;;;;;;;;;;5021717;28;20120;-79
2021/06/22 05:51:13;;;;;;;19.90;15.45;;;;;;;;;;5032358;28;40119;-80
2021/06/22 05:53:40;;;;;;;24.48;16.00;;;;;;;;;;5044904;28;39071;-79
2021/06/22 05:56:06;;;;;;;31.05;17.77;;;;;;;;;;5033487;28;39376;-81
2021/06/22 05:58:33;;;;;;;22.25;16.05;;;;;;;;;;5033772;28;37100;-86
2021/06/22 06:00:59;;;;;;;20.95;16.70;;;;;;;;;;5032692;28;38664;-78
2021/06/22 06:03:25;;;;;;;24.05;16.30;;;;;;;;;;5030780;28;38891;-78
2021/06/22 06:05:52;;;;;;;23.30;16.45;;;;;;;;;;5035970;28;39096;-82
2021/06/22 06:08:18;;;;;;;23.27;17.50;;;;;;;;;;5042971;28;37150;-83
2021/06/22 06:10:45;;;;;;;22.60;15.70;;;;;;;;;;5062036;28;39061;-82
2021/06/22 06:13:11;;;;;;;23.42;16.92;;;;;;;;;;5033134;28;39654;-82
2021/06/22 06:15:37;;;;;;;20.73;14.85;;;;;;;;;;5026776;28;38560;-81
2021/06/22 06:18:04;;;;;;;21.15;14.98;;;;;;;;;;5036756;28;38213;-82
2021/06/22 06:20:30;;;;;;;20.92;16.13;;;;;;;;;;5041715;28;39003;-82
2021/06/22 06:22:58;;;;;;;21.05;15.20;;;;;;;;;;5039291;28;39367;-79
2021/06/22 06:25:24;;;;;;;22.95;14.15;;;;;;;;;;5033298;28;39071;-82
2021/06/22 06:28:01;;;;;;;21.00;14.25;;;;;;;;;;5058646;28;39175;-81
2021/06/22 06:30:31;;;;;;;20.02;14.55;;;;;;;;;;5028727;28;47171;-81
2021/06/22 06:32:58;;;;;;;22.40;14.70;;;;;;;;;;5065797;28;37997;-83
2021/06/22 06:35:25;;;;;;;24.42;14.77;;;;;;;;;;5030393;28;37539;-80
2021/06/22 06:37:52;;;;;;;21.15;13.63;;;;;;;;;;5027615;28;36376;-83
2021/06/22 06:40:19;;;;;;;21.98;13.88;;;;;;;;;;5032809;28;39011;-81
2021/06/22 06:42:45;;;;;;;22.77;15.13;;;;;;;;;;5032010;28;38643;-79
2021/06/22 06:45:13;;;;;;;18.50;13.02;;;;;;;;;;5034329;28;39113;-80
2021/06/22 06:47:39;;;;;;;21.05;13.90;;;;;;;;;;5038540;28;37261;-79
2021/06/22 06:50:06;;;;;;;16.42;13.05;;;;;;;;;;5042827;28;39512;-85
2021/06/22 06:52:33;;;;;;;18.77;12.48;;;;;;;;;;5077522;28;37824;-80
2021/06/22 06:54:59;;;;;;;19.52;12.35;;;;;;;;;;5057940;28;37615;-81
2021/06/22 06:57:26;;;;;;;19.13;12.75;;;;;;;;;;5061345;27;38417;-84
2021/06/22 06:59:52;;;;;;;19.25;12.18;;;;;;;;;;5062515;28;39227;-86
2021/06/22 07:02:18;;;;;;;16.27;11.70;;;;;;;;;;5076199;28;41074;-85
2021/06/22 07:04:45;;;;;;;16.85;11.45;;;;;;;;;;5059323;28;39033;-86
2021/06/22 07:07:11;;;;;;;19.80;11.93;;;;;;;;;;5062086;27;35997;-84
2021/06/22 07:09:38;;;;;;;18.50;11.20;;;;;;;;;;5062187;28;38619;-86
2021/06/22 07:12:04;;;;;;;17.15;11.68;;;;;;;;;;5056992;27;37812;-85
2021/06/22 07:14:31;;;;;;;14.25;10.48;;;;;;;;;;5066866;28;37259;-87
2021/06/22 07:16:57;;;;;;;19.17;11.20;;;;;;;;;;5057285;28;36736;-84
2021/06/22 07:19:24;;;;;;;18.45;10.77;;;;;;;;;;5056193;27;38340;-84
2021/06/22 07:21:50;;;;;;;16.42;10.50;;;;;;;;;;5060172;28;38956;-82
2021/06/22 07:24:16;;;;;;;17.13;10.48;;;;;;;;;;5053930;28;37584;-83
2021/06/22 07:26:43;;;;;;;17.45;9.80;;;;;;;;;;5060445;28;36182;-85
2021/06/22 07:29:09;;;;;;;17.05;9.48;;;;;;;;;;5063835;28;38981;-84
2021/06/22 07:31:36;;;;;;;12.18;10.15;;;;;;;;;;5055010;28;38455;-83
2021/06/22 07:34:03;;;;;;;16.52;10.10;;;;;;;;;;5054512;28;39111;-83
2021/06/22 07:36:31;;;;;;;13.50;10.23;;;;;;;;;;5050349;28;47124;-83
2021/06/22 07:38:58;;;;;;;12.45;9.82;;;;;;;;;;5062104;28;39102;-85
2021/06/22 07:41:25;;;;;;;11.40;8.88;;;;;;;;;;5050200;28;38009;-85
2021/06/22 07:43:51;;;;;;;17.25;10.02;;;;;;;;;;5058430;28;37614;-87
2021/06/22 07:46:18;;;;;;;13.27;9.20;;;;;;;;;;5050170;28;37171;-85
2021/06/22 07:48:46;;;;;;;16.50;10.10;;;;;;;;;;5052441;28;39527;-85
2021/06/22 07:51:13;;;;;;;15.50;9.77;;;;;;;;;;5063693;27;40293;-84
2021/06/22 07:53:39;;;;;;;16.13;9.95;;;;;;;;;;5061350;27;39262;-85
2021/06/22 07:56:06;;;;;;;15.55;10.02;;;;;;;;;;5053096;28;34512;-82
2021/06/22 07:58:32;;;;;;;13.20;8.63;;;;;;;;;;5048550;27;39499;-86
2021/06/22 08:00:59;;;;;;;14.02;10.05;;;;;;;;;;5050063;28;39435;-85
2021/06/22 08:03:27;;;;;;;15.35;9.85;;;;;;;;;;5047392;28;39321;-86
2021/06/22 08:05:54;;;;;;;14.20;9.88;;;;;;;;;;5057062;27;37486;-83
2021/06/22 08:08:22;;;;;;;11.90;9.35;;;;;;;;;;5068173;27;40483;-79
2021/06/22 08:10:50;;;;;;;13.18;8.75;;;;;;;;;;5084799;27;39873;-80
2021/06/22 08:13:17;;;;;;;14.18;9.48;;;;;;;;;;5060701;27;38441;-79
2021/06/22 08:15:43;;;;;;;13.00;8.85;;;;;;;;;;5056562;28;35536;-82
2021/06/22 08:18:10;;;;;;;11.10;8.25;;;;;;;;;;5063842;27;38074;-83
2021/06/22 08:20:37;;;;;;;9.82;8.10;;;;;;;;;;5055557;28;39587;-82
2021/06/22 08:23:04;;;;;;;12.98;8.88;;;;;;;;;;5082477;27;38722;-81
2021/06/22 08:25:32;;;;;;;10.45;8.18;;;;;;;;;;5059421;27;37552;-80
2021/06/22 08:27:59;;;;;;;10.63;8.68;;;;;;;;;;5052384;28;39290;-81
2021/06/22 08:30:26;;;;;;;10.93;7.30;;;;;;;;;;5049320;27;40336;-83
2021/06/22 08:32:53;;;;;;;10.05;7.00;;;;;;;;;;5073854;28;38847;-84
2021/06/22 08:35:19;;;;;;;13.43;7.72;;;;;;;;;;5058935;27;37623;-84
2021/06/22 08:37:46;;;;;;;9.88;7.28;;;;;;;;;;5056422;27;38511;-84
2021/06/22 08:40:13;;;;;;;12.32;6.93;;;;;;;;;;5052592;27;39388;-80
2021/06/22 08:42:40;;;;;;;10.07;7.10;;;;;;;;;;5054662;28;39566;-81
2021/06/22 08:45:08;;;;;;;8.75;6.55;;;;;;;;;;5053859;27;38241;-81
2021/06/22 08:47:35;;;;;;;10.18;6.60;;;;;;;;;;5068106;28;39536;-83
2021/06/22 08:50:01;;;;;;;11.82;6.63;;;;;;;;;;5036315;28;40161;-82
2021/06/22 08:52:31;;;;;;;10.70;7.22;;;;;;;;;;5060166;28;46831;-82
2021/06/22 08:54:57;;;;;;;8.85;6.93;;;;;;;;;;5071534;28;37469;-82
2021/06/22 08:57:24;;;;;;;11.63;6.82;;;;;;;;;;5060354;28;39662;-81
2021/06/22 08:59:51;;;;;;;10.57;7.18;;;;;;;;;;5029076;28;39224;-82
2021/06/22 09:02:24;;;;;;;9.20;6.60;;;;;;;;;;5040431;28;38609;-82
2021/06/22 09:04:51;;;;;;;10.77;7.18;;;;;;;;;;5066233;28;38479;-81
2021/06/22 09:07:36;;;;;;;9.02;6.80;;;;;;;;;;5059206;28;39899;-82
2021/06/22 09:10:07;;;;;;;14.57;8.32;;;;;;;;;;5069106;28;39807;-81
2021/06/22 09:12:33;;;;;;;9.90;7.07;;;;;;;;;;5033186;28;47243;-82
2021/06/22 09:15:00;;;;;;;10.35;6.32;;;;;;;;;;5031503;28;38659;-82
2021/06/22 09:17:35;;;;;;;8.48;6.88;;;;;;;;;;5053175;28;40449;-82
2021/06/22 09:20:02;;;;;;;10.00;6.93;;;;;;;;;;5058807;28;39717;-83
2021/06/22 09:22:28;;;;;;;10.88;7.30;;;;;;;;;;5052559;27;38786;-83
2021/06/22 09:25:01;;;;;;;10.65;7.07;;;;;;;;;;5053928;28;39092;-82
2021/06/22 09:27:47;;;;;;;9.65;6.70;;;;;;;;;;5059047;27;48591;-82
2021/06/22 09:30:14;;;;;;;10.15;6.18;;;;;;;;;;5046326;28;39942;-83
2021/06/22 09:32:42;;;;;;;7.15;5.68;;;;;;;;;;5064277;28;36971;-82
2021/06/22 09:35:21;;;;;;;8.85;6.25;;;;;;;;;;5050410;27;37629;-82
2021/06/22 09:37:54;;;;;;;12.20;6.65;;;;;;;;;;5048909;28;39815;-82
2021/06/22 09:40:24;;;;;;;8.82;6.70;;;;;;;;;;5061732;27;40505;-82
2021/06/22 09:42:55;;;;;;;8.93;6.43;;;;;;;;;;5064936;28;39496;-83
2021/06/22 09:45:22;;;;;;;9.13;5.70;;;;;;;;;;5073153;27;38025;-83
2021/06/22 09:47:48;;;;;;;6.90;6.20;;;;;;;;;;5050534;28;38658;-81
2021/06/22 09:50:33;;;;;;;6.97;5.90;;;;;;;;;;5057414;28;39613;-82
2021/06/22 09:53:18;;;;;;;9.13;5.97;;;;;;;;;;5063243;27;39346;-82
2021/06/22 09:55:45;;;;;;;7.43;6.60;;;;;;;;;;5061288;28;46861;-82
2021/06/22 09:58:13;;;;;;;9.80;6.25;;;;;;;;;;5063007;28;38498;-83
2021/06/22 10:00:39;;;;;;;8.20;6.25;;;;;;;;;;5063202;27;39750;-82
2021/06/22 10:03:07;;;;;;;10.30;6.10;;;;;;;;;;5060636;27;38448;-81
2021/06/22 10:05:54;;;;;;;10.27;7.07;;;;;;;;;;5046456;28;37662;-81
2021/06/22 10:08:21;;;;;;;9.35;6.40;;;;;;;;;;5057525;28;39418;-82
2021/06/22 10:10:47;;;;;;;9.20;6.00;;;;;;;;;;5058455;28;39356;-81
2021/06/22 10:13:32;;;;;;;9.43;6.00;;;;;;;;;;5054250;27;38351;-81
2021/06/22 10:16:17;;;;;;;11.50;6.88;;;;;;;;;;5064614;27;38124;-81
2021/06/22 10:18:44;;;;;;;11.60;6.30;;;;;;;;;;5052451;28;49093;-80
2021/06/22 10:21:10;;;;;;;8.45;6.20;;;;;;;;;;5060368;28;40894;-81
2021/06/22 10:23:37;;;;;;;9.38;5.75;;;;;;;;;;5067428;28;38793;-81
2021/06/22 10:26:03;;;;;;;10.75;5.47;;;;;;;;;;5065787;27;36698;-82
2021/06/22 10:28:30;;;;;;;9.25;5.75;;;;;;;;;;5057025;27;37291;-83
2021/06/22 10:30:57;;;;;;;8.38;5.28;;;;;;;;;;5065430;28;39341;-82
2021/06/22 10:33:23;;;;;;;9.70;5.63;;;;;;;;;;5048838;28;38179;-79
2021/06/22 10:35:50;;;;;;;11.63;6.18;;;;;;;;;;5060122;28;37720;-80
2021/06/22 10:38:16;;;;;;;6.95;5.05;;;;;;;;;;5042687;28;41055;-79
2021/06/22 10:40:43;;;;;;;9.95;5.22;;;;;;;;;;5037448;28;38741;-79
2021/06/22 10:43:09;;;;;;;9.35;5.43;;;;;;;;;;5063763;28;38431;-82
2021/06/22 10:45:56;;;;;;;7.15;5.35;;;;;;;;;;5061266;28;39135;-79
2021/06/22 10:48:22;;;;;;;8.05;5.43;;;;;;;;;;5067615;28;41119;-79
2021/06/22 10:50:49;;;;;;;9.30;5.32;;;;;;;;;;5037164;28;38952;-81
2021/06/22 10:53:15;;;;;;;6.95;5.00;;;;;;;;;;5069572;28;38997;-79
2021/06/22 10:55:52;;;;;;;10.63;4.97;;;;;;;;;;5080458;27;37368;-80
2021/06/22 10:58:19;;;;;;;8.43;5.75;;;;;;;;;;5061964;28;39847;-80
2021/06/22 11:00:51;;;;;;;12.10;6.07;;;;;;;;;;5058665;27;39872;-80
2021/06/22 11:03:24;;;;;;;9.73;5.63;;;;;;;;;;5057263;27;38886;-80
2021/06/22 11:06:04;;;;;;;6.10;5.43;;;;;;;;;;5061470;27;37141;-79
2021/06/22 11:08:31;;;;;;;7.32;5.28;;;;;;;;;;5051247;27;48933;-80
2021/06/22 11:11:00;;;;;;;8.30;4.97;;;;;;;;;;5060854;28;38936;-82
2021/06/22 11:13:40;;;;;;;9.90;4.93;;;;;;;;;;5054306;27;42069;-84
2021/06/22 11:16:27;;;;;;;7.38;4.28;;;;;;;;;;5067495;27;35962;-83
2021/06/22 11:18:56;;;;;;;7.10;4.45;;;;;;;;;;5059096;28;38977;-83
2021/06/22 11:21:25;;;;;;;8.45;5.30;;;;;;;;;;5057882;27;37933;-85
2021/06/22 11:23:55;;;;;;;8.77;4.30;;;;;;;;;;5061237;27;38602;-83
2021/06/22 11:26:22;;;;;;;8.35;4.38;;;;;;;;;;5047969;28;36383;-82
2021/06/22 11:28:57;;;;;;;7.75;4.28;;;;;;;;;;5063416;28;38043;-82
2021/06/22 11:31:43;;;;;;;8.98;4.57;;;;;;;;;;5055950;28;39125;-84
2021/06/22 11:34:14;;;;;;;8.18;3.90;;;;;;;;;;5069772;28;39193;-84
2021/06/22 11:36:52;;;;;;;6.72;3.90;;;;;;;;;;5074047;28;36526;-85
2021/06/22 11:39:23;;;;;;;8.00;4.40;;;;;;;;;;5065496;27;39627;-83
2021/06/22 11:42:11;;;;;;;7.75;3.88;;;;;;;;;;5067209;28;38262;-83
2021/06/22 11:44:38;;;;;;;7.32;3.40;;;;;;;;;;5051924;28;47809;-83
2021/06/22 11:47:05;;;;;;;7.18;3.30;;;;;;;;;;5075540;27;36168;-84
2021/06/22 11:49:42;;;;;;;5.35;3.65;;;;;;;;;;5061045;28;39231;-83
2021/06/22 11:52:10;;;;;;;9.68;4.47;;;;;;;;;;5051974;27;37996;-84
2021/06/22 11:54:58;;;;;;;5.70;3.70;;;;;;;;;;5063641;28;37287;-84
2021/06/22 11:57:28;;;;;;;7.50;3.80;;;;;;;;;;5048785;27;37302;-78
2021/06/22 11:59:55;;;;;;;6.57;3.42;;;;;;;;;;5057069;28;39714;-79
2021/06/22 12:02:22;;;;;;;6.05;3.70;;;;;;;;;;5038763;28;38115;-81
2021/06/22 12:04:49;;;;;;;8.82;4.03;;;;;;;;;;5042949;28;37171;-80
2021/06/22 12:07:18;;;;;;;8.68;4.28;;;;;;;;;;5051783;27;37365;-80
2021/06/22 12:09:45;;;;;;;9.18;4.32;;;;;;;;;;5042133;28;38887;-79
2021/06/22 12:12:12;;;;;;;7.60;4.53;;;;;;;;;;5043813;27;39489;-80
2021/06/22 12:14:46;;;;;;;8.05;4.57;;;;;;;;;;5064029;28;39072;-80
2021/06/22 12:17:13;;;;;;;4.28;3.45;;;;;;;;;;5030274;28;36672;-80
2021/06/22 12:19:40;;;;;;;12.65;4.88;;;;;;;;;;5039784;28;39147;-80
2021/06/22 12:22:06;;;;;;;9.00;5.68;;;;;;;;;;5055840;28;38903;-80
2021/06/22 12:24:33;;;;;;;12.10;6.93;;;;;;;;;;5029056;28;36821;-80
2021/06/22 12:27:00;;;;;;;12.57;6.72;;;;;;;;;;5033963;28;36371;-80
2021/06/22 12:29:29;;;;;;;10.88;6.80;;;;;;;;;;5068415;28;41653;-82
2021/06/22 12:31:57;;;;;;;13.45;7.60;;;;;;;;;;5035980;28;40532;-83
2021/06/22 12:34:25;;;;;;;14.38;6.82;;;;;;;;;;5033721;28;39341;-81
2021/06/22 12:36:51;;;;;;;13.00;7.00;;;;;;;;;;5036058;28;37354;-81
2021/06/22 12:39:19;;;;;;;12.15;7.07;;;;;;;;;;5079643;28;39200;-81
2021/06/22 12:41:45;;;;;;;12.00;6.20;;;;;;;;;;5052660;28;39195;-81
2021/06/22 12:44:12;;;;;;;7.40;6.18;;;;;;;;;;5067330;27;38940;-80
2021/06/22 12:46:39;;;;;;;10.18;5.63;;;;;;;;;;5050177;28;35593;-80
2021/06/22 12:49:06;;;;;;;10.30;4.85;;;;;;;;;;5050098;28;37853;-81
2021/06/22 12:51:34;;;;;;;8.63;4.65;;;;;;;;;;5036365;28;38947;-80
2021/06/22 12:54:00;;;;;;;10.15;5.25;;;;;;;;;;5058780;28;39440;-80
2021/06/22 12:56:27;;;;;;;11.35;5.63;;;;;;;;;;5036956;27;47773;-79
2021/06/22 12:58:55;;;;;;;14.07;5.30;;;;;;;;;;5038027;28;40027;-80
2021/06/22 13:01:25;;;;;;;9.73;4.88;;;;;;;;;;5038957;27;38797;-80
2021/06/22 13:03:53;;;;;;;9.27;5.35;;;;;;;;;;5064843;28;37754;-79
2021/06/22 13:06:28;;;;;;;8.55;4.88;;;;;;;;;;5032557;28;36047;-81
2021/06/22 13:08:56;;;;;;;12.43;5.22;;;;;;;;;;5033670;28;37522;-80
2021/06/22 13:11:26;;;;;;;9.77;5.70;;;;;;;;;;5034182;27;39137;-80
2021/06/22 13:13:53;;;;;;;10.38;5.47;;;;;;;;;;5030338;28;39261;-81
2021/06/22 13:16:20;;;;;;;10.35;5.13;;;;;;;;;;5029382;27;36802;-80
2021/06/22 13:18:57;;;;;;;11.15;4.90;;;;;;;;;;5058819;28;39607;-82
2021/06/22 13:21:24;;;;;;;12.07;5.00;;;;;;;;;;5038192;28;39642;-82
2021/06/22 13:23:50;;;;;;;10.55;5.00;;;;;;;;;;5054062;28;37323;-80
2021/06/22 13:26:17;;;;;;;10.15;5.03;;;;;;;;;;5027496;28;35829;-79
2021/06/22 13:28:54;;;;;;;10.07;4.65;;;;;;;;;;5028298;28;39140;-80
2021/06/22 13:31:21;;;;;;;9.57;5.00;;;;;;;;;;5030498;28;38567;-79
2021/06/22 13:33:47;;;;;;;9.38;4.78;;;;;;;;;;5026026;28;39367;-79
2021/06/22 13:36:19;;;;;;;9.38;4.82;;;;;;;;;;5056842;28;35685;-80
2021/06/22 13:39:00;;;;;;;7.57;4.55;;;;;;;;;;5060435;28;37718;-81
2021/06/22 13:41:26;;;;;;;8.88;4.80;;;;;;;;;;5023551;27;38877;-83
2021/06/22 13:43:53;;;;;;;6.65;4.88;;;;;;;;;;5044152;28;37401;-81
2021/06/22 13:46:20;;;;;;;8.75;4.65;;;;;;;;;;5051794;28;35906;-81
2021/06/22 13:48:51;;;;;;;10.57;5.15;;;;;;;;;;5060178;27;37603;-80
2021/06/22 13:51:31;;;;;;;6.20;4.28;;;;;;;;;;5061103;27;38140;-80
2021/06/22 13:54:08;;;;;;;10.93;5.80;;;;;;;;;;5050814;28;39336;-81
2021/06/22 13:56:35;;;;;;;9.40;5.70;;;;;;;;;;5046087;28;47571;-81
2021/06/22 13:59:01;;;;;;;9.75;5.88;;;;;;;;;;5062959;27;40028;-82
2021/06/22 14:01:28;;;;;;;12.63;5.70;;;;;;;;;;5032351;28;39253;-82
2021/06/22 14:04:01;;;;;;;10.13;6.13;;;;;;;;;;5041806;28;39969;-81
2021/06/22 14:06:28;;;;;;;9.77;5.78;;;;;;;;;;5065186;28;40185;-82
2021/06/22 14:08:54;;;;;;;9.25;6.05;;;;;;;;;;5063135;28;39388;-81
2021/06/22 14:11:22;;;;;;;9.30;5.68;;;;;;;;;;5033580;28;39696;-81
2021/06/22 14:13:50;;;;;;;11.18;6.38;;;;;;;;;;5031605;28;38146;-81
2021/06/22 14:16:16;;;;;;;13.88;7.60;;;;;;;;;;5065796;27;38601;-82
2021/06/22 14:18:44;;;;;;;9.15;6.30;;;;;;;;;;5042610;28;39301;-83
2021/06/22 14:21:10;;;;;;;10.00;5.93;;;;;;;;;;4128009;27;10000739;-81
2021/06/22 14:23:37;;;;;;;10.90;6.00;;;;;;;;;;4990366;28;38892;-83
2021/06/22 14:26:03;;;;;;;9.40;5.75;;;;;;;;;;4988333;28;39464;-81
2021/06/22 14:28:32;;;;;;;15.43;6.43;;;;;;;;;;4988556;28;38383;-82
2021/06/22 14:30:59;;;;;;;11.18;6.00;;;;;;;;;;4990116;28;38024;-80
2021/06/22 14:33:26;;;;;;;8.27;5.50;;;;;;;;;;5029744;28;39948;-81
2021/06/22 14:35:54;;;;;;;9.30;5.57;;;;;;;;;;4993788;28;40526;-81
2021/06/22 14:38:21;;;;;;;10.95;5.38;;;;;;;;;;4985179;28;38671;-79